sensor_id;sensor_type;location;lat;lon;timestamp;P1;durP1;ratioP1;P2;durP2;ratioP2
76995;SDS011;65929;49.062;10.338;2023-09-18T00:00:16;5.05;;;4.20;;
76995;SDS011;65929;49.062;10.338;2023-09-18T00:01:17;5.82;;;4.20;;
76995;SDS011;65929;49.062;10.338;2023-09-18T00:02:20;5.57;;;4.53;;
76995;SDS011;65929;49.062;10.338;2023-09-18T00:03:21;5.85;;;4.25;;
76995;SDS011;65929;49.062;10.338;2023-09-18T00:04:24;5.80;;;4.68;;
76995;SDS011;65929;49.062;10.338;2023-09-18T00:05:25;5.53;;;4.45;;
76995;SDS011;65929;49.062;10.338;2023-09-18T00:06:26;7.82;;;4.70;;
76995;SDS011;65929;49.062;10.338;2023-09-18T00:07:29;4.88;;;4.28;;
76995;SDS011;65929;49.062;10.338;2023-09-18T00:08:31;5.65;;;4.30;;
76995;SDS011;65929;49.062;10.338;2023-09-18T00:09:32;5.60;;;4.30;;
76995;SDS011;65929;49.062;10.338;2023-09-18T00:10:33;5.15;;;4.30;;
76995;SDS011;65929;49.062;10.338;2023-09-18T00:11:34;5.43;;;4.53;;
76995;SDS011;65929;49.062;10.338;2023-09-18T00:12:35;6.53;;;4.53;;
76995;SDS011;65929;49.062;10.338;2023-09-18T00:13:36;5.47;;;4.53;;
76995;SDS011;65929;49.062;10.338;2023-09-18T00:14:37;6.13;;;4.50;;
76995;SDS011;65929;49.062;10.338;2023-09-18T00:15:38;5.85;;;4.18;;
76995;SDS011;65929;49.062;10.338;2023-09-18T00:16:41;5.50;;;4.22;;
76995;SDS011;65929;49.062;10.338;2023-09-18T00:17:42;6.35;;;4.25;;
76995;SDS011;65929;49.062;10.338;2023-09-18T00:18:43;7.00;;;4.80;;
76995;SDS011;65929;49.062;10.338;2023-09-18T00:19:44;7.18;;;4.90;;
76995;SDS011;65929;49.062;10.338;2023-09-18T00:20:46;6.88;;;4.60;;
76995;SDS011;65929;49.062;10.338;2023-09-18T00:21:48;7.43;;;5.03;;
76995;SDS011;65929;49.062;10.338;2023-09-18T00:22:50;5.47;;;4.57;;
76995;SDS011;65929;49.062;10.338;2023-09-18T00:23:51;7.18;;;4.47;;
76995;SDS011;65929;49.062;10.338;2023-09-18T00:24:52;6.30;;;5.00;;
76995;SDS011;65929;49.062;10.338;2023-09-18T00:25:53;6.07;;;4.38;;
76995;SDS011;65929;49.062;10.338;2023-09-18T00:26:54;7.90;;;4.65;;
76995;SDS011;65929;49.062;10.338;2023-09-18T00:27:55;5.97;;;4.47;;
76995;SDS011;65929;49.062;10.338;2023-09-18T00:28:56;6.15;;;4.63;;
76995;SDS011;65929;49.062;10.338;2023-09-18T00:29:57;5.38;;;4.65;;
76995;SDS011;65929;49.062;10.338;2023-09-18T00:30:58;6.30;;;4.72;;
76995;SDS011;65929;49.062;10.338;2023-09-18T00:31:59;6.35;;;4.72;;
76995;SDS011;65929;49.062;10.338;2023-09-18T00:33:00;6.85;;;4.82;;
76995;SDS011;65929;49.062;10.338;2023-09-18T00:34:01;6.65;;;4.90;;
76995;SDS011;65929;49.062;10.338;2023-09-18T00:35:02;6.60;;;5.30;;
76995;SDS011;65929;49.062;10.338;2023-09-18T00:36:03;8.73;;;4.95;;
76995;SDS011;65929;49.062;10.338;2023-09-18T00:37:05;6.75;;;4.55;;
76995;SDS011;65929;49.062;10.338;2023-09-18T00:38:07;6.72;;;5.03;;
76995;SDS011;65929;49.062;10.338;2023-09-18T00:39:08;7.43;;;5.05;;
76995;SDS011;65929;49.062;10.338;2023-09-18T00:40:10;6.82;;;4.63;;
76995;SDS011;65929;49.062;10.338;2023-09-18T00:41:12;6.65;;;4.82;;
76995;SDS011;65929;49.062;10.338;2023-09-18T00:42:12;8.43;;;4.68;;
76995;SDS011;65929;49.062;10.338;2023-09-18T00:43:14;5.57;;;4.10;;
76995;SDS011;65929;49.062;10.338;2023-09-18T00:44:15;5.88;;;4.03;;
76995;SDS011;65929;49.062;10.338;2023-09-18T00:45:15;6.65;;;4.93;;
76995;SDS011;65929;49.062;10.338;2023-09-18T00:46:17;6.53;;;4.85;;
76995;SDS011;65929;49.062;10.338;2023-09-18T00:47:18;7.28;;;5.47;;
76995;SDS011;65929;49.062;10.338;2023-09-18T00:48:19;6.10;;;4.68;;
76995;SDS011;65929;49.062;10.338;2023-09-18T00:49:21;7.30;;;4.80;;
76995;SDS011;65929;49.062;10.338;2023-09-18T00:50:24;7.97;;;4.85;;
76995;SDS011;65929;49.062;10.338;2023-09-18T00:51:26;6.10;;;4.70;;
76995;SDS011;65929;49.062;10.338;2023-09-18T00:52:28;5.47;;;4.32;;
76995;SDS011;65929;49.062;10.338;2023-09-18T00:53:30;6.07;;;4.57;;
76995;SDS011;65929;49.062;10.338;2023-09-18T00:54:31;6.13;;;4.80;;
76995;SDS011;65929;49.062;10.338;2023-09-18T00:55:34;6.13;;;4.90;;
76995;SDS011;65929;49.062;10.338;2023-09-18T00:56:38;6.15;;;4.78;;
76995;SDS011;65929;49.062;10.338;2023-09-18T00:57:39;7.50;;;5.00;;
76995;SDS011;65929;49.062;10.338;2023-09-18T00:58:40;7.32;;;5.10;;
76995;SDS011;65929;49.062;10.338;2023-09-18T00:59:41;6.80;;;4.55;;
76995;SDS011;65929;49.062;10.338;2023-09-18T01:00:43;5.90;;;4.53;;
76995;SDS011;65929;49.062;10.338;2023-09-18T01:01:44;7.43;;;5.53;;
76995;SDS011;65929;49.062;10.338;2023-09-18T01:02:46;6.88;;;5.18;;
76995;SDS011;65929;49.062;10.338;2023-09-18T01:03:47;7.80;;;6.05;;
76995;SDS011;65929;49.062;10.338;2023-09-18T01:04:48;7.97;;;5.45;;
76995;SDS011;65929;49.062;10.338;2023-09-18T01:05:49;6.45;;;5.13;;
76995;SDS011;65929;49.062;10.338;2023-09-18T01:06:50;6.55;;;5.18;;
76995;SDS011;65929;49.062;10.338;2023-09-18T01:07:52;7.85;;;5.22;;
76995;SDS011;65929;49.062;10.338;2023-09-18T01:08:55;6.93;;;5.35;;
76995;SDS011;65929;49.062;10.338;2023-09-18T01:09:56;6.90;;;4.55;;
76995;SDS011;65929;49.062;10.338;2023-09-18T01:11:00;8.30;;;5.22;;
76995;SDS011;65929;49.062;10.338;2023-09-18T01:12:06;6.80;;;4.85;;
76995;SDS011;65929;49.062;10.338;2023-09-18T01:13:16;6.32;;;4.47;;
76995;SDS011;65929;49.062;10.338;2023-09-18T01:14:29;5.60;;;4.63;;
76995;SDS011;65929;49.062;10.338;2023-09-18T01:15:37;6.25;;;5.07;;
76995;SDS011;65929;49.062;10.338;2023-09-18T01:16:57;7.32;;;5.03;;
76995;SDS011;65929;49.062;10.338;2023-09-18T01:18:02;6.82;;;4.75;;
76995;SDS011;65929;49.062;10.338;2023-09-18T01:19:03;6.55;;;4.80;;
76995;SDS011;65929;49.062;10.338;2023-09-18T01:20:04;6.22;;;4.68;;
76995;SDS011;65929;49.062;10.338;2023-09-18T01:21:06;6.22;;;4.47;;
76995;SDS011;65929;49.062;10.338;2023-09-18T01:22:07;6.15;;;4.82;;
76995;SDS011;65929;49.062;10.338;2023-09-18T01:23:11;6.72;;;4.93;;
76995;SDS011;65929;49.062;10.338;2023-09-18T01:24:11;8.10;;;5.05;;
76995;SDS011;65929;49.062;10.338;2023-09-18T01:25:12;7.70;;;5.07;;
76995;SDS011;65929;49.062;10.338;2023-09-18T01:26:13;8.27;;;5.57;;
76995;SDS011;65929;49.062;10.338;2023-09-18T01:27:15;8.90;;;5.43;;
76995;SDS011;65929;49.062;10.338;2023-09-18T01:28:19;10.55;;;6.18;;
76995;SDS011;65929;49.062;10.338;2023-09-18T01:29:20;7.40;;;5.80;;
76995;SDS011;65929;49.062;10.338;2023-09-18T01:30:21;6.82;;;5.50;;
76995;SDS011;65929;49.062;10.338;2023-09-18T01:31:25;7.40;;;5.32;;
76995;SDS011;65929;49.062;10.338;2023-09-18T01:32:27;7.07;;;5.32;;
76995;SDS011;65929;49.062;10.338;2023-09-18T01:33:31;7.50;;;5.40;;
76995;SDS011;65929;49.062;10.338;2023-09-18T01:34:34;6.78;;;5.35;;
76995;SDS011;65929;49.062;10.338;2023-09-18T01:35:37;9.48;;;6.40;;
76995;SDS011;65929;49.062;10.338;2023-09-18T01:36:39;8.48;;;5.85;;
76995;SDS011;65929;49.062;10.338;2023-09-18T01:37:40;7.93;;;6.10;;
76995;SDS011;65929;49.062;10.338;2023-09-18T01:38:43;8.73;;;6.07;;
76995;SDS011;65929;49.062;10.338;2023-09-18T01:39:45;9.20;;;5.63;;
76995;SDS011;65929;49.062;10.338;2023-09-18T01:40:48;7.18;;;6.07;;
76995;SDS011;65929;49.062;10.338;2023-09-18T01:41:49;9.63;;;6.47;;
76995;SDS011;65929;49.062;10.338;2023-09-18T01:42:50;9.70;;;6.65;;
76995;SDS011;65929;49.062;10.338;2023-09-18T01:43:51;9.48;;;6.85;;
76995;SDS011;65929;49.062;10.338;2023-09-18T01:44:53;9.15;;;6.72;;
76995;SDS011;65929;49.062;10.338;2023-09-18T01:45:54;9.30;;;6.65;;
76995;SDS011;65929;49.062;10.338;2023-09-18T01:46:56;10.52;;;7.32;;
76995;SDS011;65929;49.062;10.338;2023-09-18T01:47:59;8.00;;;6.38;;
76995;SDS011;65929;49.062;10.338;2023-09-18T01:49:00;9.52;;;6.72;;
76995;SDS011;65929;49.062;10.338;2023-09-18T01:50:02;7.97;;;5.93;;
76995;SDS011;65929;49.062;10.338;2023-09-18T01:51:05;9.35;;;6.80;;
76995;SDS011;65929;49.062;10.338;2023-09-18T01:52:06;7.47;;;6.07;;
76995;SDS011;65929;49.062;10.338;2023-09-18T01:53:08;7.32;;;5.75;;
76995;SDS011;65929;49.062;10.338;2023-09-18T01:54:10;9.07;;;6.70;;
76995;SDS011;65929;49.062;10.338;2023-09-18T01:55:11;11.02;;;7.05;;
76995;SDS011;65929;49.062;10.338;2023-09-18T01:56:12;11.57;;;7.03;;
76995;SDS011;65929;49.062;10.338;2023-09-18T01:57:13;9.50;;;7.18;;
76995;SDS011;65929;49.062;10.338;2023-09-18T01:58:14;8.23;;;6.90;;
76995;SDS011;65929;49.062;10.338;2023-09-18T01:59:15;8.93;;;6.53;;
76995;SDS011;65929;49.062;10.338;2023-09-18T02:00:16;9.20;;;6.85;;
76995;SDS011;65929;49.062;10.338;2023-09-18T02:01:18;9.80;;;7.03;;
76995;SDS011;65929;49.062;10.338;2023-09-18T02:02:19;10.57;;;6.93;;
76995;SDS011;65929;49.062;10.338;2023-09-18T02:03:20;8.38;;;6.63;;
76995;SDS011;65929;49.062;10.338;2023-09-18T02:04:22;7.90;;;6.07;;
76995;SDS011;65929;49.062;10.338;2023-09-18T02:05:23;8.40;;;6.20;;
76995;SDS011;65929;49.062;10.338;2023-09-18T02:06:24;7.35;;;6.20;;
76995;SDS011;65929;49.062;10.338;2023-09-18T02:07:25;8.95;;;5.85;;
76995;SDS011;65929;49.062;10.338;2023-09-18T02:08:26;9.95;;;6.30;;
76995;SDS011;65929;49.062;10.338;2023-09-18T02:09:28;8.65;;;5.85;;
76995;SDS011;65929;49.062;10.338;2023-09-18T02:10:29;9.50;;;6.82;;
76995;SDS011;65929;49.062;10.338;2023-09-18T02:11:30;8.02;;;6.20;;
76995;SDS011;65929;49.062;10.338;2023-09-18T02:12:31;10.10;;;6.20;;
76995;SDS011;65929;49.062;10.338;2023-09-18T02:13:32;8.18;;;6.35;;
76995;SDS011;65929;49.062;10.338;2023-09-18T02:14:33;10.65;;;6.95;;
76995;SDS011;65929;49.062;10.338;2023-09-18T02:15:36;8.25;;;6.65;;
76995;SDS011;65929;49.062;10.338;2023-09-18T02:16:38;9.95;;;6.20;;
76995;SDS011;65929;49.062;10.338;2023-09-18T02:17:41;8.32;;;6.53;;
76995;SDS011;65929;49.062;10.338;2023-09-18T02:18:42;8.68;;;6.10;;
76995;SDS011;65929;49.062;10.338;2023-09-18T02:19:44;8.18;;;5.80;;
76995;SDS011;65929;49.062;10.338;2023-09-18T02:20:45;10.48;;;6.00;;
76995;SDS011;65929;49.062;10.338;2023-09-18T02:21:49;9.13;;;6.60;;
76995;SDS011;65929;49.062;10.338;2023-09-18T02:22:49;9.88;;;6.32;;
76995;SDS011;65929;49.062;10.338;2023-09-18T02:23:51;7.80;;;5.75;;
76995;SDS011;65929;49.062;10.338;2023-09-18T02:24:53;9.50;;;6.13;;
76995;SDS011;65929;49.062;10.338;2023-09-18T02:25:57;7.95;;;5.97;;
76995;SDS011;65929;49.062;10.338;2023-09-18T02:26:59;7.85;;;5.93;;
76995;SDS011;65929;49.062;10.338;2023-09-18T02:27:59;10.48;;;6.15;;
76995;SDS011;65929;49.062;10.338;2023-09-18T02:29:01;7.63;;;6.05;;
76995;SDS011;65929;49.062;10.338;2023-09-18T02:30:04;6.65;;;5.63;;
76995;SDS011;65929;49.062;10.338;2023-09-18T02:31:06;9.60;;;5.75;;
76995;SDS011;65929;49.062;10.338;2023-09-18T02:32:08;8.75;;;5.90;;
76995;SDS011;65929;49.062;10.338;2023-09-18T02:33:10;8.82;;;5.82;;
76995;SDS011;65929;49.062;10.338;2023-09-18T02:34:11;7.22;;;5.47;;
76995;SDS011;65929;49.062;10.338;2023-09-18T02:35:11;7.15;;;5.72;;
76995;SDS011;65929;49.062;10.338;2023-09-18T02:36:13;8.75;;;6.03;;
76995;SDS011;65929;49.062;10.338;2023-09-18T02:37:13;6.85;;;5.95;;
76995;SDS011;65929;49.062;10.338;2023-09-18T02:38:14;7.32;;;5.75;;
76995;SDS011;65929;49.062;10.338;2023-09-18T02:39:15;7.88;;;5.82;;
76995;SDS011;65929;49.062;10.338;2023-09-18T02:40:18;8.82;;;6.35;;
76995;SDS011;65929;49.062;10.338;2023-09-18T02:41:18;8.45;;;6.43;;
76995;SDS011;65929;49.062;10.338;2023-09-18T02:42:19;8.25;;;6.43;;
76995;SDS011;65929;49.062;10.338;2023-09-18T02:43:20;8.93;;;6.10;;
76995;SDS011;65929;49.062;10.338;2023-09-18T02:44:21;7.35;;;5.68;;
76995;SDS011;65929;49.062;10.338;2023-09-18T02:45:22;7.22;;;5.90;;
76995;SDS011;65929;49.062;10.338;2023-09-18T02:46:23;8.82;;;5.70;;
76995;SDS011;65929;49.062;10.338;2023-09-18T02:47:24;8.93;;;6.53;;
76995;SDS011;65929;49.062;10.338;2023-09-18T02:48:25;8.02;;;6.07;;
76995;SDS011;65929;49.062;10.338;2023-09-18T02:49:26;9.20;;;6.43;;
76995;SDS011;65929;49.062;10.338;2023-09-18T02:50:27;7.60;;;6.35;;
76995;SDS011;65929;49.062;10.338;2023-09-18T02:51:28;9.90;;;6.85;;
76995;SDS011;65929;49.062;10.338;2023-09-18T02:52:31;9.75;;;7.60;;
76995;SDS011;65929;49.062;10.338;2023-09-18T02:53:32;9.90;;;7.55;;
76995;SDS011;65929;49.062;10.338;2023-09-18T02:54:33;10.73;;;7.13;;
76995;SDS011;65929;49.062;10.338;2023-09-18T02:55:36;10.10;;;7.32;;
76995;SDS011;65929;49.062;10.338;2023-09-18T02:56:37;12.43;;;7.28;;
76995;SDS011;65929;49.062;10.338;2023-09-18T02:57:38;11.98;;;7.88;;
76995;SDS011;65929;49.062;10.338;2023-09-18T02:58:39;11.68;;;6.78;;
76995;SDS011;65929;49.062;10.338;2023-09-18T02:59:40;11.25;;;7.72;;
76995;SDS011;65929;49.062;10.338;2023-09-18T03:00:41;12.02;;;8.18;;
76995;SDS011;65929;49.062;10.338;2023-09-18T03:01:43;10.93;;;7.18;;
76995;SDS011;65929;49.062;10.338;2023-09-18T03:02:44;9.52;;;7.30;;
76995;SDS011;65929;49.062;10.338;2023-09-18T03:03:45;9.38;;;7.22;;
76995;SDS011;65929;49.062;10.338;2023-09-18T03:04:46;9.82;;;6.95;;
76995;SDS011;65929;49.062;10.338;2023-09-18T03:05:47;10.43;;;7.22;;
76995;SDS011;65929;49.062;10.338;2023-09-18T03:06:48;12.90;;;7.30;;
76995;SDS011;65929;49.062;10.338;2023-09-18T03:07:49;11.68;;;7.70;;
76995;SDS011;65929;49.062;10.338;2023-09-18T03:08:50;9.60;;;7.30;;
76995;SDS011;65929;49.062;10.338;2023-09-18T03:09:51;9.18;;;7.00;;
76995;SDS011;65929;49.062;10.338;2023-09-18T03:10:53;8.70;;;6.68;;
76995;SDS011;65929;49.062;10.338;2023-09-18T03:11:54;9.15;;;7.22;;
76995;SDS011;65929;49.062;10.338;2023-09-18T03:12:55;10.00;;;7.13;;
76995;SDS011;65929;49.062;10.338;2023-09-18T03:13:56;9.90;;;7.28;;
76995;SDS011;65929;49.062;10.338;2023-09-18T03:14:57;8.95;;;7.03;;
76995;SDS011;65929;49.062;10.338;2023-09-18T03:15:58;9.15;;;7.15;;
76995;SDS011;65929;49.062;10.338;2023-09-18T03:16:59;9.50;;;6.97;;
76995;SDS011;65929;49.062;10.338;2023-09-18T03:18:00;9.95;;;6.72;;
76995;SDS011;65929;49.062;10.338;2023-09-18T03:19:02;10.18;;;7.30;;
76995;SDS011;65929;49.062;10.338;2023-09-18T03:20:03;8.75;;;6.60;;
76995;SDS011;65929;49.062;10.338;2023-09-18T03:21:05;9.35;;;6.85;;
76995;SDS011;65929;49.062;10.338;2023-09-18T03:22:06;9.38;;;6.32;;
76995;SDS011;65929;49.062;10.338;2023-09-18T03:23:07;9.40;;;6.82;;
76995;SDS011;65929;49.062;10.338;2023-09-18T03:24:08;10.45;;;6.90;;
76995;SDS011;65929;49.062;10.338;2023-09-18T03:25:09;8.98;;;6.40;;
76995;SDS011;65929;49.062;10.338;2023-09-18T03:26:11;8.63;;;6.60;;
76995;SDS011;65929;49.062;10.338;2023-09-18T03:27:12;9.38;;;6.75;;
76995;SDS011;65929;49.062;10.338;2023-09-18T03:28:13;9.98;;;7.03;;
76995;SDS011;65929;49.062;10.338;2023-09-18T03:29:14;8.25;;;6.25;;
76995;SDS011;65929;49.062;10.338;2023-09-18T03:30:15;9.85;;;6.97;;
76995;SDS011;65929;49.062;10.338;2023-09-18T03:31:16;8.30;;;5.97;;
76995;SDS011;65929;49.062;10.338;2023-09-18T03:32:17;7.97;;;6.93;;
76995;SDS011;65929;49.062;10.338;2023-09-18T03:33:18;8.80;;;5.90;;
76995;SDS011;65929;49.062;10.338;2023-09-18T03:34:19;9.38;;;6.40;;
76995;SDS011;65929;49.062;10.338;2023-09-18T03:35:20;8.32;;;6.45;;
76995;SDS011;65929;49.062;10.338;2023-09-18T03:36:21;8.85;;;6.50;;
76995;SDS011;65929;49.062;10.338;2023-09-18T03:37:25;7.95;;;5.63;;
76995;SDS011;65929;49.062;10.338;2023-09-18T03:38:26;7.95;;;6.60;;
76995;SDS011;65929;49.062;10.338;2023-09-18T03:39:27;8.30;;;6.28;;
76995;SDS011;65929;49.062;10.338;2023-09-18T03:40:28;8.50;;;6.53;;
76995;SDS011;65929;49.062;10.338;2023-09-18T03:41:30;7.45;;;5.85;;
76995;SDS011;65929;49.062;10.338;2023-09-18T03:42:34;9.77;;;6.32;;
76995;SDS011;65929;49.062;10.338;2023-09-18T03:43:35;10.23;;;6.70;;
76995;SDS011;65929;49.062;10.338;2023-09-18T03:44:36;10.32;;;6.72;;
76995;SDS011;65929;49.062;10.338;2023-09-18T03:45:37;9.77;;;6.60;;
76995;SDS011;65929;49.062;10.338;2023-09-18T03:46:39;8.98;;;6.95;;
76995;SDS011;65929;49.062;10.338;2023-09-18T03:47:40;9.35;;;6.85;;
76995;SDS011;65929;49.062;10.338;2023-09-18T03:48:41;7.93;;;6.35;;
76995;SDS011;65929;49.062;10.338;2023-09-18T03:49:42;10.82;;;6.60;;
76995;SDS011;65929;49.062;10.338;2023-09-18T03:50:43;9.20;;;6.63;;
76995;SDS011;65929;49.062;10.338;2023-09-18T03:51:44;7.55;;;5.65;;
76995;SDS011;65929;49.062;10.338;2023-09-18T03:52:45;8.45;;;5.90;;
76995;SDS011;65929;49.062;10.338;2023-09-18T03:53:46;7.97;;;5.57;;
76995;SDS011;65929;49.062;10.338;2023-09-18T03:54:48;9.38;;;5.93;;
76995;SDS011;65929;49.062;10.338;2023-09-18T03:55:49;7.65;;;5.63;;
76995;SDS011;65929;49.062;10.338;2023-09-18T03:56:51;9.10;;;7.05;;
76995;SDS011;65929;49.062;10.338;2023-09-18T03:57:52;8.02;;;6.18;;
76995;SDS011;65929;49.062;10.338;2023-09-18T03:58:53;8.68;;;6.80;;
76995;SDS011;65929;49.062;10.338;2023-09-18T03:59:54;7.53;;;6.25;;
76995;SDS011;65929;49.062;10.338;2023-09-18T04:00:55;9.93;;;6.50;;
76995;SDS011;65929;49.062;10.338;2023-09-18T04:01:56;7.72;;;5.72;;
76995;SDS011;65929;49.062;10.338;2023-09-18T04:02:57;7.55;;;6.18;;
76995;SDS011;65929;49.062;10.338;2023-09-18T04:03:58;9.05;;;6.20;;
76995;SDS011;65929;49.062;10.338;2023-09-18T04:04:59;7.82;;;6.75;;
76995;SDS011;65929;49.062;10.338;2023-09-18T04:06:00;9.13;;;6.75;;
76995;SDS011;65929;49.062;10.338;2023-09-18T04:07:05;11.43;;;7.70;;
76995;SDS011;65929;49.062;10.338;2023-09-18T04:08:06;9.60;;;7.38;;
76995;SDS011;65929;49.062;10.338;2023-09-18T04:09:07;13.50;;;8.27;;
76995;SDS011;65929;49.062;10.338;2023-09-18T04:10:08;15.55;;;8.60;;
76995;SDS011;65929;49.062;10.338;2023-09-18T04:11:10;12.35;;;7.85;;
76995;SDS011;65929;49.062;10.338;2023-09-18T04:12:13;11.38;;;8.90;;
76995;SDS011;65929;49.062;10.338;2023-09-18T04:13:14;11.45;;;9.05;;
76995;SDS011;65929;49.062;10.338;2023-09-18T04:14:15;13.80;;;9.27;;
76995;SDS011;65929;49.062;10.338;2023-09-18T04:15:16;12.82;;;9.05;;
76995;SDS011;65929;49.062;10.338;2023-09-18T04:16:18;13.32;;;10.23;;
76995;SDS011;65929;49.062;10.338;2023-09-18T04:17:19;14.23;;;10.00;;
76995;SDS011;65929;49.062;10.338;2023-09-18T04:18:21;14.40;;;10.25;;
76995;SDS011;65929;49.062;10.338;2023-09-18T04:19:22;15.23;;;10.18;;
76995;SDS011;65929;49.062;10.338;2023-09-18T04:20:23;12.52;;;9.23;;
76995;SDS011;65929;49.062;10.338;2023-09-18T04:21:24;15.00;;;9.95;;
76995;SDS011;65929;49.062;10.338;2023-09-18T04:22:25;13.57;;;9.63;;
76995;SDS011;65929;49.062;10.338;2023-09-18T04:23:26;14.57;;;10.20;;
76995;SDS011;65929;49.062;10.338;2023-09-18T04:24:27;15.45;;;10.55;;
76995;SDS011;65929;49.062;10.338;2023-09-18T04:25:28;12.55;;;9.13;;
76995;SDS011;65929;49.062;10.338;2023-09-18T04:26:31;12.95;;;9.23;;
76995;SDS011;65929;49.062;10.338;2023-09-18T04:27:34;15.40;;;10.15;;
76995;SDS011;65929;49.062;10.338;2023-09-18T04:28:35;13.88;;;10.40;;
76995;SDS011;65929;49.062;10.338;2023-09-18T04:29:36;14.50;;;10.40;;
76995;SDS011;65929;49.062;10.338;2023-09-18T04:30:37;14.27;;;10.27;;
76995;SDS011;65929;49.062;10.338;2023-09-18T04:31:38;13.52;;;9.88;;
76995;SDS011;65929;49.062;10.338;2023-09-18T04:32:40;13.05;;;9.73;;
76995;SDS011;65929;49.062;10.338;2023-09-18T04:33:41;14.32;;;10.32;;
76995;SDS011;65929;49.062;10.338;2023-09-18T04:34:41;14.20;;;10.13;;
76995;SDS011;65929;49.062;10.338;2023-09-18T04:35:42;13.73;;;9.38;;
76995;SDS011;65929;49.062;10.338;2023-09-18T04:36:44;15.38;;;9.90;;
76995;SDS011;65929;49.062;10.338;2023-09-18T04:37:45;14.55;;;10.07;;
76995;SDS011;65929;49.062;10.338;2023-09-18T04:38:45;14.93;;;10.10;;
76995;SDS011;65929;49.062;10.338;2023-09-18T04:39:46;15.18;;;10.73;;
76995;SDS011;65929;49.062;10.338;2023-09-18T04:40:57;15.93;;;9.60;;
76995;SDS011;65929;49.062;10.338;2023-09-18T04:41:58;13.07;;;9.23;;
76995;SDS011;65929;49.062;10.338;2023-09-18T04:43:02;11.82;;;8.60;;
76995;SDS011;65929;49.062;10.338;2023-09-18T04:44:06;11.30;;;8.27;;
76995;SDS011;65929;49.062;10.338;2023-09-18T04:45:07;17.23;;;8.85;;
76995;SDS011;65929;49.062;10.338;2023-09-18T04:46:09;12.40;;;8.00;;
76995;SDS011;65929;49.062;10.338;2023-09-18T04:47:10;11.25;;;8.25;;
76995;SDS011;65929;49.062;10.338;2023-09-18T04:48:10;10.65;;;7.68;;
76995;SDS011;65929;49.062;10.338;2023-09-18T04:49:11;11.48;;;8.80;;
76995;SDS011;65929;49.062;10.338;2023-09-18T04:50:12;11.18;;;7.85;;
76995;SDS011;65929;49.062;10.338;2023-09-18T04:51:13;8.88;;;7.00;;
76995;SDS011;65929;49.062;10.338;2023-09-18T04:52:14;11.18;;;8.10;;
76995;SDS011;65929;49.062;10.338;2023-09-18T04:53:15;9.93;;;7.75;;
76995;SDS011;65929;49.062;10.338;2023-09-18T04:54:16;10.02;;;7.22;;
76995;SDS011;65929;49.062;10.338;2023-09-18T04:55:19;9.95;;;7.63;;
76995;SDS011;65929;49.062;10.338;2023-09-18T04:56:24;9.65;;;6.80;;
76995;SDS011;65929;49.062;10.338;2023-09-18T04:57:26;9.50;;;7.20;;
76995;SDS011;65929;49.062;10.338;2023-09-18T04:58:28;10.18;;;7.15;;
76995;SDS011;65929;49.062;10.338;2023-09-18T04:59:31;9.85;;;6.78;;
76995;SDS011;65929;49.062;10.338;2023-09-18T05:00:32;11.38;;;6.95;;
76995;SDS011;65929;49.062;10.338;2023-09-18T05:01:33;9.57;;;7.00;;
76995;SDS011;65929;49.062;10.338;2023-09-18T05:02:34;9.27;;;7.13;;
76995;SDS011;65929;49.062;10.338;2023-09-18T05:03:35;11.13;;;7.35;;
76995;SDS011;65929;49.062;10.338;2023-09-18T05:04:36;11.52;;;7.47;;
76995;SDS011;65929;49.062;10.338;2023-09-18T05:05:37;10.90;;;7.30;;
76995;SDS011;65929;49.062;10.338;2023-09-18T05:06:38;10.40;;;7.05;;
76995;SDS011;65929;49.062;10.338;2023-09-18T05:07:40;10.70;;;7.30;;
76995;SDS011;65929;49.062;10.338;2023-09-18T05:08:42;11.32;;;7.88;;
76995;SDS011;65929;49.062;10.338;2023-09-18T05:09:43;11.07;;;7.85;;
76995;SDS011;65929;49.062;10.338;2023-09-18T05:10:44;9.68;;;7.38;;
76995;SDS011;65929;49.062;10.338;2023-09-18T05:11:45;11.20;;;7.72;;
76995;SDS011;65929;49.062;10.338;2023-09-18T05:12:46;9.27;;;7.10;;
76995;SDS011;65929;49.062;10.338;2023-09-18T05:13:48;11.05;;;7.70;;
76995;SDS011;65929;49.062;10.338;2023-09-18T05:14:49;9.18;;;7.10;;
76995;SDS011;65929;49.062;10.338;2023-09-18T05:15:51;10.20;;;6.93;;
76995;SDS011;65929;49.062;10.338;2023-09-18T05:16:52;9.18;;;6.85;;
76995;SDS011;65929;49.062;10.338;2023-09-18T05:17:53;8.68;;;6.95;;
76995;SDS011;65929;49.062;10.338;2023-09-18T05:18:57;8.68;;;6.82;;
76995;SDS011;65929;49.062;10.338;2023-09-18T05:19:59;8.43;;;6.40;;
76995;SDS011;65929;49.062;10.338;2023-09-18T05:21:01;7.95;;;6.65;;
76995;SDS011;65929;49.062;10.338;2023-09-18T05:22:02;10.07;;;6.97;;
76995;SDS011;65929;49.062;10.338;2023-09-18T05:23:03;11.05;;;7.35;;
76995;SDS011;65929;49.062;10.338;2023-09-18T05:24:04;10.40;;;7.13;;
76995;SDS011;65929;49.062;10.338;2023-09-18T05:25:05;10.55;;;6.80;;
76995;SDS011;65929;49.062;10.338;2023-09-18T05:26:07;9.40;;;6.88;;
76995;SDS011;65929;49.062;10.338;2023-09-18T05:27:08;10.05;;;7.10;;
76995;SDS011;65929;49.062;10.338;2023-09-18T05:28:10;8.32;;;6.97;;
76995;SDS011;65929;49.062;10.338;2023-09-18T05:29:12;10.65;;;6.70;;
76995;SDS011;65929;49.062;10.338;2023-09-18T05:30:13;10.10;;;6.65;;
76995;SDS011;65929;49.062;10.338;2023-09-18T05:31:15;11.57;;;7.15;;
76995;SDS011;65929;49.062;10.338;2023-09-18T05:32:16;8.27;;;6.22;;
76995;SDS011;65929;49.062;10.338;2023-09-18T05:33:17;9.63;;;6.85;;
76995;SDS011;65929;49.062;10.338;2023-09-18T05:34:20;9.10;;;7.20;;
76995;SDS011;65929;49.062;10.338;2023-09-18T05:35:21;9.65;;;7.03;;
76995;SDS011;65929;49.062;10.338;2023-09-18T05:36:23;10.43;;;7.15;;
76995;SDS011;65929;49.062;10.338;2023-09-18T05:37:24;11.48;;;7.35;;
76995;SDS011;65929;49.062;10.338;2023-09-18T05:38:25;9.40;;;7.32;;
76995;SDS011;65929;49.062;10.338;2023-09-18T05:39:26;9.70;;;7.00;;
76995;SDS011;65929;49.062;10.338;2023-09-18T05:40:27;9.43;;;7.10;;
76995;SDS011;65929;49.062;10.338;2023-09-18T05:41:28;9.90;;;7.47;;
76995;SDS011;65929;49.062;10.338;2023-09-18T05:42:29;8.27;;;6.55;;
76995;SDS011;65929;49.062;10.338;2023-09-18T05:43:30;10.85;;;7.40;;
76995;SDS011;65929;49.062;10.338;2023-09-18T05:44:32;10.88;;;6.82;;
76995;SDS011;65929;49.062;10.338;2023-09-18T05:45:33;9.30;;;6.90;;
76995;SDS011;65929;49.062;10.338;2023-09-18T05:46:34;8.13;;;6.65;;
76995;SDS011;65929;49.062;10.338;2023-09-18T05:47:35;8.77;;;7.15;;
76995;SDS011;65929;49.062;10.338;2023-09-18T05:48:37;10.90;;;6.75;;
76995;SDS011;65929;49.062;10.338;2023-09-18T05:49:38;9.90;;;6.70;;
76995;SDS011;65929;49.062;10.338;2023-09-18T05:50:39;9.70;;;7.45;;
76995;SDS011;65929;49.062;10.338;2023-09-18T05:51:41;10.50;;;7.97;;
76995;SDS011;65929;49.062;10.338;2023-09-18T05:52:44;9.52;;;6.70;;
76995;SDS011;65929;49.062;10.338;2023-09-18T05:53:45;10.63;;;6.60;;
76995;SDS011;65929;49.062;10.338;2023-09-18T05:54:46;10.10;;;7.18;;
76995;SDS011;65929;49.062;10.338;2023-09-18T05:55:47;8.30;;;6.50;;
76995;SDS011;65929;49.062;10.338;2023-09-18T05:56:48;9.88;;;6.00;;
76995;SDS011;65929;49.062;10.338;2023-09-18T05:57:49;7.72;;;6.60;;
76995;SDS011;65929;49.062;10.338;2023-09-18T05:58:50;11.93;;;6.93;;
76995;SDS011;65929;49.062;10.338;2023-09-18T05:59:52;8.18;;;6.60;;
76995;SDS011;65929;49.062;10.338;2023-09-18T06:00:54;10.38;;;7.20;;
76995;SDS011;65929;49.062;10.338;2023-09-18T06:01:55;8.55;;;7.18;;
76995;SDS011;65929;49.062;10.338;2023-09-18T06:02:56;8.57;;;7.22;;
76995;SDS011;65929;49.062;10.338;2023-09-18T06:03:57;9.57;;;7.20;;